sensor_id;sensor_type;location;lat;lon;timestamp;temperature;humidity
76305;DHT22;65111;50.536;19.204;2023-02-08T00:01:40;-3274.30;86.00
76305;DHT22;65111;50.536;19.204;2023-02-08T00:04:05;-3274.20;86.00
76305;DHT22;65111;50.536;19.204;2023-02-08T00:06:31;-3274.20;86.00
76305;DHT22;65111;50.536;19.204;2023-02-08T00:08:57;-3274.20;86.10
76305;DHT22;65111;50.536;19.204;2023-02-08T00:11:23;-3274.20;86.10
76305;DHT22;65111;50.536;19.204;2023-02-08T00:13:49;-3274.20;86.10
76305;DHT22;65111;50.536;19.204;2023-02-08T00:16:15;-3274.20;86.10
76305;DHT22;65111;50.536;19.204;2023-02-08T00:18:41;-3274.30;86.20
76305;DHT22;65111;50.536;19.204;2023-02-08T00:21:12;-3274.20;86.00
76305;DHT22;65111;50.536;19.204;2023-02-08T00:23:38;-3274.20;86.10
76305;DHT22;65111;50.536;19.204;2023-02-08T00:26:05;-3274.20;86.20
76305;DHT22;65111;50.536;19.204;2023-02-08T00:28:31;-3274.20;86.20
76305;DHT22;65111;50.536;19.204;2023-02-08T00:30:57;-3274.20;86.10
76305;DHT22;65111;50.536;19.204;2023-02-08T00:33:23;-3274.20;86.30
76305;DHT22;65111;50.536;19.204;2023-02-08T00:35:48;-3274.10;86.30
76305;DHT22;65111;50.536;19.204;2023-02-08T00:38:14;-3274.10;86.20
76305;DHT22;65111;50.536;19.204;2023-02-08T00:40:40;-3274.20;86.30
76305;DHT22;65111;50.536;19.204;2023-02-08T00:43:06;-3274.20;86.30
76305;DHT22;65111;50.536;19.204;2023-02-08T00:45:32;-3274.20;86.40
76305;DHT22;65111;50.536;19.204;2023-02-08T00:47:59;-3274.10;86.50
76305;DHT22;65111;50.536;19.204;2023-02-08T00:50:24;-3274.10;86.40
76305;DHT22;65111;50.536;19.204;2023-02-08T00:52:50;-3274.20;86.40
76305;DHT22;65111;50.536;19.204;2023-02-08T00:55:16;-3274.10;86.60
76305;DHT22;65111;50.536;19.204;2023-02-08T00:57:42;-3274.10;86.60
76305;DHT22;65111;50.536;19.204;2023-02-08T01:00:09;-3274.20;86.70
76305;DHT22;65111;50.536;19.204;2023-02-08T01:02:37;-3274.10;86.60
76305;DHT22;65111;50.536;19.204;2023-02-08T01:05:03;-3274.10;86.70
76305;DHT22;65111;50.536;19.204;2023-02-08T01:07:29;-3274.20;86.80
76305;DHT22;65111;50.536;19.204;2023-02-08T01:09:55;-3274.20;86.70
76305;DHT22;65111;50.536;19.204;2023-02-08T01:12:21;-3274.20;86.70
76305;DHT22;65111;50.536;19.204;2023-02-08T01:14:47;-3274.20;86.70
76305;DHT22;65111;50.536;19.204;2023-02-08T01:17:13;-3274.10;86.80
76305;DHT22;65111;50.536;19.204;2023-02-08T01:19:39;-3274.20;86.70
76305;DHT22;65111;50.536;19.204;2023-02-08T01:22:05;-3274.20;86.80
76305;DHT22;65111;50.536;19.204;2023-02-08T01:24:30;-3274.20;86.70
76305;DHT22;65111;50.536;19.204;2023-02-08T01:26:56;-3275.20;87.30
76305;DHT22;65111;50.536;19.204;2023-02-08T01:29:23;-3275.40;84.80
76305;DHT22;65111;50.536;19.204;2023-02-08T01:31:50;-3275.70;83.40
76305;DHT22;65111;50.536;19.204;2023-02-08T01:34:16;-3275.90;83.00
76305;DHT22;65111;50.536;19.204;2023-02-08T01:36:42;-3275.60;83.00
76305;DHT22;65111;50.536;19.204;2023-02-08T01:39:09;-3275.20;84.10
76305;DHT22;65111;50.536;19.204;2023-02-08T01:41:39;-3274.90;84.70
76305;DHT22;65111;50.536;19.204;2023-02-08T01:46:42;-3274.60;85.80
76305;DHT22;65111;50.536;19.204;2023-02-08T01:49:14;-3274.40;86.00
76305;DHT22;65111;50.536;19.204;2023-02-08T01:52:10;-3274.40;86.30
76305;DHT22;65111;50.536;19.204;2023-02-08T01:54:50;-3274.40;86.60
76305;DHT22;65111;50.536;19.204;2023-02-08T01:57:18;-3274.30;86.70
76305;DHT22;65111;50.536;19.204;2023-02-08T02:00:11;-3274.40;86.80
76305;DHT22;65111;50.536;19.204;2023-02-08T02:02:35;-3274.30;86.80
76305;DHT22;65111;50.536;19.204;2023-02-08T02:05:02;-3274.40;86.80
76305;DHT22;65111;50.536;19.204;2023-02-08T02:07:30;-3274.30;86.90
76305;DHT22;65111;50.536;19.204;2023-02-08T02:12:31;-3274.30;87.10
76305;DHT22;65111;50.536;19.204;2023-02-08T02:14:58;-3274.30;87.10
76305;DHT22;65111;50.536;19.204;2023-02-08T02:17:25;-3274.30;87.20
76305;DHT22;65111;50.536;19.204;2023-02-08T02:26:00;-3274.30;87.30
76305;DHT22;65111;50.536;19.204;2023-02-08T02:35:02;-3274.40;87.60
76305;DHT22;65111;50.536;19.204;2023-02-08T02:48:11;-3274.40;88.10
76305;DHT22;65111;50.536;19.204;2023-02-08T02:50:48;-3274.50;88.20
76305;DHT22;65111;50.536;19.204;2023-02-08T02:53:19;-3274.50;88.30
76305;DHT22;65111;50.536;19.204;2023-02-08T02:55:53;-3274.50;88.30
76305;DHT22;65111;50.536;19.204;2023-02-08T02:58:21;-3274.70;88.20
76305;DHT22;65111;50.536;19.204;2023-02-08T03:00:57;-3274.50;88.20
76305;DHT22;65111;50.536;19.204;2023-02-08T03:03:30;-3274.60;88.30
76305;DHT22;65111;50.536;19.204;2023-02-08T03:06:04;-3274.50;88.30
76305;DHT22;65111;50.536;19.204;2023-02-08T03:08:56;-3274.60;88.40
76305;DHT22;65111;50.536;19.204;2023-02-08T03:11:30;-3274.40;88.60
76305;DHT22;65111;50.536;19.204;2023-02-08T03:19:21;-3274.40;88.70
76305;DHT22;65111;50.536;19.204;2023-02-08T03:21:57;-3274.30;88.70
76305;DHT22;65111;50.536;19.204;2023-02-08T03:24:37;-3274.40;88.60
76305;DHT22;65111;50.536;19.204;2023-02-08T03:32:47;-3274.60;88.30
76305;DHT22;65111;50.536;19.204;2023-02-08T03:35:35;-3274.50;88.20
76305;DHT22;65111;50.536;19.204;2023-02-08T03:38:13;-3274.60;88.10
76305;DHT22;65111;50.536;19.204;2023-02-08T03:40:43;-3274.50;88.20
76305;DHT22;65111;50.536;19.204;2023-02-08T03:43:14;-3274.60;88.00
76305;DHT22;65111;50.536;19.204;2023-02-08T03:45:46;-3274.60;87.90
76305;DHT22;65111;50.536;19.204;2023-02-08T03:48:16;-3274.70;87.80
76305;DHT22;65111;50.536;19.204;2023-02-08T03:50:48;-3274.70;87.60
76305;DHT22;65111;50.536;19.204;2023-02-08T03:53:19;-3274.80;87.60
76305;DHT22;65111;50.536;19.204;2023-02-08T03:55:48;-3274.70;87.60
76305;DHT22;65111;50.536;19.204;2023-02-08T03:58:24;-3274.70;87.50
76305;DHT22;65111;50.536;19.204;2023-02-08T04:00:55;-3274.60;87.50
76305;DHT22;65111;50.536;19.204;2023-02-08T04:03:25;-3274.70;87.80
76305;DHT22;65111;50.536;19.204;2023-02-08T04:05:53;-3274.60;88.00
76305;DHT22;65111;50.536;19.204;2023-02-08T04:08:19;-3274.70;88.00
76305;DHT22;65111;50.536;19.204;2023-02-08T04:10:47;-3274.60;88.00
76305;DHT22;65111;50.536;19.204;2023-02-08T04:13:13;-3274.70;87.80
76305;DHT22;65111;50.536;19.204;2023-02-08T04:15:39;-3274.90;87.80
76305;DHT22;65111;50.536;19.204;2023-02-08T04:18:05;-3275.00;87.70
76305;DHT22;65111;50.536;19.204;2023-02-08T04:20:30;-3275.00;87.60
76305;DHT22;65111;50.536;19.204;2023-02-08T04:22:56;-3275.00;87.60
76305;DHT22;65111;50.536;19.204;2023-02-08T04:25:22;-3275.00;87.50
76305;DHT22;65111;50.536;19.204;2023-02-08T04:27:48;-3275.10;87.50
76305;DHT22;65111;50.536;19.204;2023-02-08T04:30:14;-3275.00;87.50
76305;DHT22;65111;50.536;19.204;2023-02-08T04:32:40;-3275.00;87.30
76305;DHT22;65111;50.536;19.204;2023-02-08T04:35:06;-3274.90;87.40
76305;DHT22;65111;50.536;19.204;2023-02-08T04:37:33;-3275.00;87.60
76305;DHT22;65111;50.536;19.204;2023-02-08T04:39:59;-3274.70;87.80
76305;DHT22;65111;50.536;19.204;2023-02-08T04:42:25;-3274.90;88.10
76305;DHT22;65111;50.536;19.204;2023-02-08T04:44:51;-3274.80;88.20
76305;DHT22;65111;50.536;19.204;2023-02-08T04:47:17;-3274.80;88.60
76305;DHT22;65111;50.536;19.204;2023-02-08T04:49:42;-3274.80;89.00
76305;DHT22;65111;50.536;19.204;2023-02-08T04:52:08;-3274.60;89.20
76305;DHT22;65111;50.536;19.204;2023-02-08T04:54:34;-3274.60;89.50
76305;DHT22;65111;50.536;19.204;2023-02-08T04:57:00;-3274.60;89.80
76305;DHT22;65111;50.536;19.204;2023-02-08T04:59:26;-3274.70;89.90
76305;DHT22;65111;50.536;19.204;2023-02-08T05:01:52;-3274.70;90.00
76305;DHT22;65111;50.536;19.204;2023-02-08T05:04:18;-3274.60;89.90
76305;DHT22;65111;50.536;19.204;2023-02-08T05:06:44;-3274.80;89.90
76305;DHT22;65111;50.536;19.204;2023-02-08T05:09:10;-3274.90;89.80
76305;DHT22;65111;50.536;19.204;2023-02-08T05:11:36;-3274.90;89.70
76305;DHT22;65111;50.536;19.204;2023-02-08T05:14:02;-3275.00;89.60
76305;DHT22;65111;50.536;19.204;2023-02-08T05:16:28;-3274.90;89.50
76305;DHT22;65111;50.536;19.204;2023-02-08T05:18:55;-3274.80;89.70
76305;DHT22;65111;50.536;19.204;2023-02-08T05:21:21;-3274.90;89.90
76305;DHT22;65111;50.536;19.204;2023-02-08T05:23:51;-3274.80;90.20
76305;DHT22;65111;50.536;19.204;2023-02-08T05:26:17;-3274.70;90.40
76305;DHT22;65111;50.536;19.204;2023-02-08T05:28:44;-3274.90;90.50
76305;DHT22;65111;50.536;19.204;2023-02-08T05:31:14;-3274.70;90.40
76305;DHT22;65111;50.536;19.204;2023-02-08T05:33:41;-3274.90;90.20
76305;DHT22;65111;50.536;19.204;2023-02-08T05:36:08;-3274.90;90.30
76305;DHT22;65111;50.536;19.204;2023-02-08T05:38:34;-3274.90;90.20
76305;DHT22;65111;50.536;19.204;2023-02-08T05:41:00;-3275.00;90.30
76305;DHT22;65111;50.536;19.204;2023-02-08T05:43:26;-3274.70;90.50
76305;DHT22;65111;50.536;19.204;2023-02-08T05:45:52;-3274.80;90.60
76305;DHT22;65111;50.536;19.204;2023-02-08T05:48:18;-3274.80;90.80
76305;DHT22;65111;50.536;19.204;2023-02-08T05:50:44;-3274.90;90.90
76305;DHT22;65111;50.536;19.204;2023-02-08T05:53:10;-3274.80;90.90
76305;DHT22;65111;50.536;19.204;2023-02-08T05:55:36;-3275.00;90.70
76305;DHT22;65111;50.536;19.204;2023-02-08T05:58:02;-3274.80;90.70
76305;DHT22;65111;50.536;19.204;2023-02-08T06:00:28;-3274.80;90.90
76305;DHT22;65111;50.536;19.204;2023-02-08T06:02:56;-3274.80;91.10
76305;DHT22;65111;50.536;19.204;2023-02-08T06:05:22;-3274.80;91.20
76305;DHT22;65111;50.536;19.204;2023-02-08T06:07:48;-3274.80;91.30
76305;DHT22;65111;50.536;19.204;2023-02-08T06:10:14;-3274.70;91.40
76305;DHT22;65111;50.536;19.204;2023-02-08T06:12:40;-3274.70;91.70
76305;DHT22;65111;50.536;19.204;2023-02-08T06:15:06;-3274.60;92.00
76305;DHT22;65111;50.536;19.204;2023-02-08T06:17:32;-3274.50;92.20
76305;DHT22;65111;50.536;19.204;2023-02-08T06:19:58;-3274.60;92.30
76305;DHT22;65111;50.536;19.204;2023-02-08T06:22:24;-3274.70;92.40
76305;DHT22;65111;50.536;19.204;2023-02-08T06:24:49;-3274.60;92.40
76305;DHT22;65111;50.536;19.204;2023-02-08T06:27:15;-3274.60;92.50
76305;DHT22;65111;50.536;19.204;2023-02-08T06:29:41;-3274.50;92.60
76305;DHT22;65111;50.536;19.204;2023-02-08T06:32:07;-3274.60;92.70
76305;DHT22;65111;50.536;19.204;2023-02-08T06:34:33;-3274.50;92.60
76305;DHT22;65111;50.536;19.204;2023-02-08T06:36:59;-3274.60;92.70
76305;DHT22;65111;50.536;19.204;2023-02-08T06:39:27;-3274.50;92.80
76305;DHT22;65111;50.536;19.204;2023-02-08T06:41:54;-3274.50;92.80
76305;DHT22;65111;50.536;19.204;2023-02-08T06:44:20;-3274.50;92.80
76305;DHT22;65111;50.536;19.204;2023-02-08T06:46:46;-3274.60;92.90
76305;DHT22;65111;50.536;19.204;2023-02-08T06:49:12;-3274.60;92.90
76305;DHT22;65111;50.536;19.204;2023-02-08T06:51:38;-3274.50;92.90
76305;DHT22;65111;50.536;19.204;2023-02-08T06:54:05;-3274.60;92.90
76305;DHT22;65111;50.536;19.204;2023-02-08T06:56:31;-3274.50;92.80
76305;DHT22;65111;50.536;19.204;2023-02-08T06:58:57;-3274.60;92.90
76305;DHT22;65111;50.536;19.204;2023-02-08T07:01:23;-3274.70;92.80
76305;DHT22;65111;50.536;19.204;2023-02-08T07:03:49;-3274.60;92.70
76305;DHT22;65111;50.536;19.204;2023-02-08T07:06:18;-3274.70;92.70
76305;DHT22;65111;50.536;19.204;2023-02-08T07:08:45;-3274.80;92.60
76305;DHT22;65111;50.536;19.204;2023-02-08T07:11:16;-3275.00;92.40
76305;DHT22;65111;50.536;19.204;2023-02-08T07:13:48;-3275.10;92.20
76305;DHT22;65111;50.536;19.204;2023-02-08T07:16:15;-3275.30;91.90
76305;DHT22;65111;50.536;19.204;2023-02-08T07:18:42;-3275.20;91.50
76305;DHT22;65111;50.536;19.204;2023-02-08T07:21:08;-3275.30;91.30
76305;DHT22;65111;50.536;19.204;2023-02-08T07:23:37;-3275.30;91.10
76305;DHT22;65111;50.536;19.204;2023-02-08T07:26:06;-3275.50;91.00
76305;DHT22;65111;50.536;19.204;2023-02-08T07:28:33;-3275.30;90.60
76305;DHT22;65111;50.536;19.204;2023-02-08T07:31:07;-3275.40;90.50
76305;DHT22;65111;50.536;19.204;2023-02-08T07:33:33;-3275.40;90.40
76305;DHT22;65111;50.536;19.204;2023-02-08T07:35:59;-3275.50;90.40
76305;DHT22;65111;50.536;19.204;2023-02-08T07:38:26;-3275.70;90.20
76305;DHT22;65111;50.536;19.204;2023-02-08T07:40:59;-3275.70;90.00
76305;DHT22;65111;50.536;19.204;2023-02-08T07:43:25;-3275.90;89.80
76305;DHT22;65111;50.536;19.204;2023-02-08T07:45:51;-3276.00;89.00
76305;DHT22;65111;50.536;19.204;2023-02-08T07:48:17;-3276.40;88.80
76305;DHT22;65111;50.536;19.204;2023-02-08T07:50:43;-3276.50;88.10
76305;DHT22;65111;50.536;19.204;2023-02-08T07:53:09;-3276.70;87.40
76305;DHT22;65111;50.536;19.204;2023-02-08T07:55:34;0.00;86.60
76305;DHT22;65111;50.536;19.204;2023-02-08T07:58:00;0.00;86.00
76305;DHT22;65111;50.536;19.204;2023-02-08T08:00:26;0.10;85.80
76305;DHT22;65111;50.536;19.204;2023-02-08T08:02:52;0.20;85.60
76305;DHT22;65111;50.536;19.204;2023-02-08T08:05:19;0.30;85.30
76305;DHT22;65111;50.536;19.204;2023-02-08T08:07:46;0.30;85.00
76305;DHT22;65111;50.536;19.204;2023-02-08T08:10:12;0.50;84.50
76305;DHT22;65111;50.536;19.204;2023-02-08T08:12:38;0.60;84.30
76305;DHT22;65111;50.536;19.204;2023-02-08T08:15:04;0.70;83.70
76305;DHT22;65111;50.536;19.204;2023-02-08T08:17:30;0.80;83.40
76305;DHT22;65111;50.536;19.204;2023-02-08T08:19:56;0.90;83.00
76305;DHT22;65111;50.536;19.204;2023-02-08T08:22:22;1.00;83.00
76305;DHT22;65111;50.536;19.204;2023-02-08T08:24:48;1.60;80.70
76305;DHT22;65111;50.536;19.204;2023-02-08T08:27:14;3.30;75.00
76305;DHT22;65111;50.536;19.204;2023-02-08T08:29:40;4.70;70.50
76305;DHT22;65111;50.536;19.204;2023-02-08T08:32:06;5.50;66.10
76305;DHT22;65111;50.536;19.204;2023-02-08T08:34:32;6.40;65.50
76305;DHT22;65111;50.536;19.204;2023-02-08T08:37:00;8.40;59.30
76305;DHT22;65111;50.536;19.204;2023-02-08T08:39:26;10.20;55.80
76305;DHT22;65111;50.536;19.204;2023-02-08T08:41:56;11.60;51.50
76305;DHT22;65111;50.536;19.204;2023-02-08T08:44:23;12.70;49.20
76305;DHT22;65111;50.536;19.204;2023-02-08T08:46:48;12.90;48.10
76305;DHT22;65111;50.536;19.204;2023-02-08T08:49:14;12.70;48.80
76305;DHT22;65111;50.536;19.204;2023-02-08T08:51:40;13.10;48.40
76305;DHT22;65111;50.536;19.204;2023-02-08T08:54:06;13.60;46.20
76305;DHT22;65111;50.536;19.204;2023-02-08T08:56:32;14.40;44.30
76305;DHT22;65111;50.536;19.204;2023-02-08T08:58:59;15.20;42.80
76305;DHT22;65111;50.536;19.204;2023-02-08T09:01:25;14.90;42.00
76305;DHT22;65111;50.536;19.204;2023-02-08T09:03:51;13.60;42.70
76305;DHT22;65111;50.536;19.204;2023-02-08T09:06:17;11.20;45.10
76305;DHT22;65111;50.536;19.204;2023-02-08T09:08:43;9.50;47.20
76305;DHT22;65111;50.536;19.204;2023-02-08T09:11:13;8.40;49.40
76305;DHT22;65111;50.536;19.204;2023-02-08T09:13:39;8.60;50.50
76305;DHT22;65111;50.536;19.204;2023-02-08T09:16:08;10.10;48.50
76305;DHT22;65111;50.536;19.204;2023-02-08T09:18:35;12.30;45.80
76305;DHT22;65111;50.536;19.204;2023-02-08T09:21:09;14.00;43.20
76305;DHT22;65111;50.536;19.204;2023-02-08T09:23:35;14.80;40.80
76305;DHT22;65111;50.536;19.204;2023-02-08T09:26:03;14.40;41.30
76305;DHT22;65111;50.536;19.204;2023-02-08T09:28:29;14.30;41.60
76305;DHT22;65111;50.536;19.204;2023-02-08T09:30:56;14.50;40.90
76305;DHT22;65111;50.536;19.204;2023-02-08T09:33:22;14.20;41.10
76305;DHT22;65111;50.536;19.204;2023-02-08T09:35:48;13.90;41.70
76305;DHT22;65111;50.536;19.204;2023-02-08T09:38:13;13.50;41.90
76305;DHT22;65111;50.536;19.204;2023-02-08T09:43:13;10.90;44.30
76305;DHT22;65111;50.536;19.204;2023-02-08T09:48:35;7.90;49.80
76305;DHT22;65111;50.536;19.204;2023-02-08T09:51:10;7.70;50.80
76305;DHT22;65111;50.536;19.204;2023-02-08T09:53:45;8.00;50.90
76305;DHT22;65111;50.536;19.204;2023-02-08T09:56:18;7.70;51.10
76305;DHT22;65111;50.536;19.204;2023-02-08T09:58:51;7.30;52.10
76305;DHT22;65111;50.536;19.204;2023-02-08T10:01:22;6.60;53.50
76305;DHT22;65111;50.536;19.204;2023-02-08T10:06:38;6.70;53.80
76305;DHT22;65111;50.536;19.204;2023-02-08T10:09:08;6.50;54.30
76305;DHT22;65111;50.536;19.204;2023-02-08T10:12:03;5.90;55.10
76305;DHT22;65111;50.536;19.204;2023-02-08T10:36:46;5.60;54.70
76305;DHT22;65111;50.536;19.204;2023-02-08T10:39:17;5.10;56.00
76305;DHT22;65111;50.536;19.204;2023-02-08T10:41:45;4.70;57.20
76305;DHT22;65111;50.536;19.204;2023-02-08T10:47:35;3.50;58.80
76305;DHT22;65111;50.536;19.204;2023-02-08T10:52:36;2.90;61.00
76305;DHT22;65111;50.536;19.204;2023-02-08T10:55:14;2.80;61.10
76305;DHT22;65111;50.536;19.204;2023-02-08T10:57:42;2.90;61.30
76305;DHT22;65111;50.536;19.204;2023-02-08T11:00:33;3.40;60.80
76305;DHT22;65111;50.536;19.204;2023-02-08T11:03:02;3.60;59.70
76305;DHT22;65111;50.536;19.204;2023-02-08T11:05:37;3.70;59.70
76305;DHT22;65111;50.536;19.204;2023-02-08T11:08:05;3.60;59.20
76305;DHT22;65111;50.536;19.204;2023-02-08T11:10:32;3.70;58.60
76305;DHT22;65111;50.536;19.204;2023-02-08T11:13:06;3.40;59.00
76305;DHT22;65111;50.536;19.204;2023-02-08T11:15:43;3.60;59.60
76305;DHT22;65111;50.536;19.204;2023-02-08T11:18:36;3.70;59.20
76305;DHT22;65111;50.536;19.204;2023-02-08T11:21:08;3.70;58.90
76305;DHT22;65111;50.536;19.204;2023-02-08T11:23:40;3.60;59.00
76305;DHT22;65111;50.536;19.204;2023-02-08T11:31:26;3.90;58.00
76305;DHT22;65111;50.536;19.204;2023-02-08T11:34:13;3.70;57.80
76305;DHT22;65111;50.536;19.204;2023-02-08T11:36:44;3.70;57.70
76305;DHT22;65111;50.536;19.204;2023-02-08T11:39:38;3.60;57.90
76305;DHT22;65111;50.536;19.204;2023-02-08T11:42:04;3.70;58.10
76305;DHT22;65111;50.536;19.204;2023-02-08T11:44:36;3.90;57.00
76305;DHT22;65111;50.536;19.204;2023-02-08T11:47:08;4.10;56.60
76305;DHT22;65111;50.536;19.204;2023-02-08T11:49:40;4.30;55.70
76305;DHT22;65111;50.536;19.204;2023-02-08T11:52:21;4.80;55.00
76305;DHT22;65111;50.536;19.204;2023-02-08T11:54:50;4.70;54.60
76305;DHT22;65111;50.536;19.204;2023-02-08T11:57:20;5.10;54.60
76305;DHT22;65111;50.536;19.204;2023-02-08T11:59:48;5.30;54.10
76305;DHT22;65111;50.536;19.204;2023-02-08T12:02:35;6.30;52.40
76305;DHT22;65111;50.536;19.204;2023-02-08T12:05:02;6.50;50.90
76305;DHT22;65111;50.536;19.204;2023-02-08T12:23:54;5.50;52.20
76305;DHT22;65111;50.536;19.204;2023-02-08T12:43:31;3.80;54.50
76305;DHT22;65111;50.536;19.204;2023-02-08T12:51:18;2.50;57.50
76305;DHT22;65111;50.536;19.204;2023-02-08T12:53:51;2.20;58.40
76305;DHT22;65111;50.536;19.204;2023-02-08T12:56:22;2.00;59.10
76305;DHT22;65111;50.536;19.204;2023-02-08T12:58:52;2.20;59.50
76305;DHT22;65111;50.536;19.204;2023-02-08T13:01:43;2.50;58.90
76305;DHT22;65111;50.536;19.204;2023-02-08T13:04:17;2.80;58.50
76305;DHT22;65111;50.536;19.204;2023-02-08T13:06:52;2.80;58.30
76305;DHT22;65111;50.536;19.204;2023-02-08T13:12:16;3.10;58.30
76305;DHT22;65111;50.536;19.204;2023-02-08T13:14:51;2.90;58.40
76305;DHT22;65111;50.536;19.204;2023-02-08T13:17:22;2.80;58.70
76305;DHT22;65111;50.536;19.204;2023-02-08T13:19:59;2.60;59.20
76305;DHT22;65111;50.536;19.204;2023-02-08T13:22:33;2.30;60.00
76305;DHT22;65111;50.536;19.204;2023-02-08T13:25:00;2.00;60.20
76305;DHT22;65111;50.536;19.204;2023-02-08T13:27:27;1.70;60.70
76305;DHT22;65111;50.536;19.204;2023-02-08T13:29:53;1.60;61.10
76305;DHT22;65111;50.536;19.204;2023-02-08T13:35:04;1.40;61.40
76305;DHT22;65111;50.536;19.204;2023-02-08T13:37:36;1.40;61.80
76305;DHT22;65111;50.536;19.204;2023-02-08T13:40:05;1.30;61.90
76305;DHT22;65111;50.536;19.204;2023-02-08T13:42:34;1.00;62.10
76305;DHT22;65111;50.536;19.204;2023-02-08T13:45:03;0.70;62.50
76305;DHT22;65111;50.536;19.204;2023-02-08T13:47:33;0.80;63.00
76305;DHT22;65111;50.536;19.204;2023-02-08T13:52:52;0.40;64.10
76305;DHT22;65111;50.536;19.204;2023-02-08T13:58:28;0.20;64.80
76305;DHT22;65111;50.536;19.204;2023-02-08T14:03:29;0.10;65.40
76305;DHT22;65111;50.536;19.204;2023-02-08T14:05:59;0.00;65.40
76305;DHT22;65111;50.536;19.204;2023-02-08T14:14:18;0.00;66.40
76305;DHT22;65111;50.536;19.204;2023-02-08T14:19:39;-3276.50;66.90
76305;DHT22;65111;50.536;19.204;2023-02-08T14:22:15;-3276.60;67.30
76305;DHT22;65111;50.536;19.204;2023-02-08T14:24:44;-3276.50;67.40
76305;DHT22;65111;50.536;19.204;2023-02-08T14:27:29;-3276.30;67.60
76305;DHT22;65111;50.536;19.204;2023-02-08T14:32:36;-3276.30;68.20
76305;DHT22;65111;50.536;19.204;2023-02-08T14:35:25;-3276.40;68.80
76305;DHT22;65111;50.536;19.204;2023-02-08T14:41:03;-3276.00;69.50
76305;DHT22;65111;50.536;19.204;2023-02-08T14:43:39;-3276.00;70.10
76305;DHT22;65111;50.536;19.204;2023-02-08T14:49:16;-3275.50;71.00
76305;DHT22;65111;50.536;19.204;2023-02-08T14:51:55;-3275.50;71.40
76305;DHT22;65111;50.536;19.204;2023-02-08T14:54:32;-3275.50;71.80
76305;DHT22;65111;50.536;19.204;2023-02-08T14:57:10;-3275.10;72.20
76305;DHT22;65111;50.536;19.204;2023-02-08T14:59:43;-3275.00;73.10
76305;DHT22;65111;50.536;19.204;2023-02-08T15:02:22;-3275.00;73.40
76305;DHT22;65111;50.536;19.204;2023-02-08T15:05:00;-3274.80;73.90
76305;DHT22;65111;50.536;19.204;2023-02-08T15:07:52;-3274.90;74.30
76305;DHT22;65111;50.536;19.204;2023-02-08T15:10:21;-3274.80;74.70
76305;DHT22;65111;50.536;19.204;2023-02-08T15:12:58;-3274.60;74.90
76305;DHT22;65111;50.536;19.204;2023-02-08T15:15:43;-3274.60;75.10
76305;DHT22;65111;50.536;19.204;2023-02-08T15:18:25;-3274.50;75.30
76305;DHT22;65111;50.536;19.204;2023-02-08T15:21:12;-3274.60;75.50
76305;DHT22;65111;50.536;19.204;2023-02-08T15:23:40;-3274.50;75.60
76305;DHT22;65111;50.536;19.204;2023-02-08T15:26:19;-3274.20;75.70
76305;DHT22;65111;50.536;19.204;2023-02-08T15:28:45;-3274.20;76.10
76305;DHT22;65111;50.536;19.204;2023-02-08T15:31:25;-3274.20;76.50
76305;DHT22;65111;50.536;19.204;2023-02-08T15:33:53;-3274.00;76.90
76305;DHT22;65111;50.536;19.204;2023-02-08T15:36:27;-3274.10;76.90
76305;DHT22;65111;50.536;19.204;2023-02-08T15:38:56;-3274.00;77.10
76305;DHT22;65111;50.536;19.204;2023-02-08T15:41:26;-3273.80;77.60
76305;DHT22;65111;50.536;19.204;2023-02-08T15:44:22;-3273.70;78.00
76305;DHT22;65111;50.536;19.204;2023-02-08T15:46:50;-3273.60;78.30
76305;DHT22;65111;50.536;19.204;2023-02-08T15:49:29;-3273.60;78.30
76305;DHT22;65111;50.536;19.204;2023-02-08T15:51:56;-3273.40;78.40
76305;DHT22;65111;50.536;19.204;2023-02-08T15:54:23;-3273.30;78.30
76305;DHT22;65111;50.536;19.204;2023-02-08T15:57:03;-3273.20;78.50
76305;DHT22;65111;50.536;19.204;2023-02-08T15:59:35;-3273.10;78.80
76305;DHT22;65111;50.536;19.204;2023-02-08T16:02:29;-3272.90;79.30
76305;DHT22;65111;50.536;19.204;2023-02-08T16:04:57;-3273.20;81.40
76305;DHT22;65111;50.536;19.204;2023-02-08T16:09:49;-3274.30;74.60
76305;DHT22;65111;50.536;19.204;2023-02-08T16:12:21;-3273.80;75.10
76305;DHT22;65111;50.536;19.204;2023-02-08T16:14:48;-3273.30;76.10
76305;DHT22;65111;50.536;19.204;2023-02-08T16:17:45;-3272.80;77.00
76305;DHT22;65111;50.536;19.204;2023-02-08T16:20:34;-3272.60;78.80
76305;DHT22;65111;50.536;19.204;2023-02-08T16:23:03;-3272.40;79.60
76305;DHT22;65111;50.536;19.204;2023-02-08T16:25:46;-3272.20;80.10
76305;DHT22;65111;50.536;19.204;2023-02-08T16:30:50;-3271.90;81.20
76305;DHT22;65111;50.536;19.204;2023-02-08T16:33:16;-3271.80;81.50
76305;DHT22;65111;50.536;19.204;2023-02-08T16:35:42;-3271.70;81.40
76305;DHT22;65111;50.536;19.204;2023-02-08T16:38:09;-3271.70;81.40
76305;DHT22;65111;50.536;19.204;2023-02-08T16:40:59;-3271.60;81.90
76305;DHT22;65111;50.536;19.204;2023-02-08T16:43:38;-3271.60;82.30
76305;DHT22;65111;50.536;19.204;2023-02-08T16:46:18;-3271.70;82.80
76305;DHT22;65111;50.536;19.204;2023-02-08T16:48:53;-3271.70;82.80
76305;DHT22;65111;50.536;19.204;2023-02-08T16:51:23;-3271.70;82.70
76305;DHT22;65111;50.536;19.204;2023-02-08T16:53:55;-3271.70;82.70
76305;DHT22;65111;50.536;19.204;2023-02-08T16:56:22;-3271.70;82.60
76305;DHT22;65111;50.536;19.204;2023-02-08T16:58:48;-3271.60;82.40
76305;DHT22;65111;50.536;19.204;2023-02-08T17:01:14;-3271.60;82.60
76305;DHT22;65111;50.536;19.204;2023-02-08T17:03:41;-3271.50;82.90
76305;DHT22;65111;50.536;19.204;2023-02-08T17:06:20;-3271.50;82.70
76305;DHT22;65111;50.536;19.204;2023-02-08T17:08:47;-3271.50;82.70
76305;DHT22;65111;50.536;19.204;2023-02-08T17:11:13;-3271.40;82.80
76305;DHT22;65111;50.536;19.204;2023-02-08T17:13:39;-3271.30;82.70
76305;DHT22;65111;50.536;19.204;2023-02-08T17:16:05;-3271.30;82.90
76305;DHT22;65111;50.536;19.204;2023-02-08T17:18:31;-3271.30;83.00
76305;DHT22;65111;50.536;19.204;2023-02-08T17:20:57;-3271.20;83.10
76305;DHT22;65111;50.536;19.204;2023-02-08T17:23:25;-3271.10;83.20
76305;DHT22;65111;50.536;19.204;2023-02-08T17:25:52;-3271.10;83.90
76305;DHT22;65111;50.536;19.204;2023-02-08T17:28:19;-3271.00;84.30
76305;DHT22;65111;50.536;19.204;2023-02-08T17:30:46;-3271.00;84.50
76305;DHT22;65111;50.536;19.204;2023-02-08T17:33:13;-3271.00;84.50
76305;DHT22;65111;50.536;19.204;2023-02-08T17:35:47;-3271.00;84.30
76305;DHT22;65111;50.536;19.204;2023-02-08T17:38:14;-3271.00;84.90
76305;DHT22;65111;50.536;19.204;2023-02-08T17:40:41;-3271.00;84.80
76305;DHT22;65111;50.536;19.204;2023-02-08T17:43:07;-3271.00;84.60